createdAt,value
2018-09-18T00:00:42.736Z,98172.23
2018-09-18T00:03:15.046Z,98171.70
2018-09-18T00:05:47.345Z,98173.78
2018-09-18T00:08:19.617Z,98172.28
2018-09-18T00:10:51.857Z,98176.96
2018-09-18T00:13:24.162Z,98176.55
2018-09-18T00:15:56.392Z,98177.84
2018-09-18T00:18:28.651Z,98169.24
2018-09-18T00:21:00.928Z,98166.40
2018-09-18T00:23:33.182Z,98164.42
2018-09-18T00:26:05.560Z,98165.03
2018-09-18T00:28:37.828Z,98166.64
2018-09-18T00:31:10.073Z,98167.19
2018-09-18T00:33:42.365Z,98166.23
2018-09-18T00:36:14.665Z,98164.16
2018-09-18T00:38:47.012Z,98162.69
2018-09-18T00:41:19.272Z,98166.09
2018-09-18T00:43:51.536Z,98161.45
2018-09-18T00:46:23.767Z,98159.85
2018-09-18T00:48:56.037Z,98167.25
2018-09-18T00:51:28.291Z,98163.89
2018-09-18T00:54:00.589Z,98161.19
2018-09-18T00:56:32.851Z,98160.58
2018-09-18T00:59:05.087Z,98154.70
2018-09-18T01:01:37.420Z,98159.11
2018-09-18T01:04:09.744Z,98161.72
2018-09-18T01:06:42.036Z,98156.47
2018-09-18T01:09:14.365Z,98157.75
2018-09-18T01:11:46.599Z,98160.88
2018-09-18T01:14:18.880Z,98154.36
2018-09-18T01:16:51.120Z,98150.66
2018-09-18T01:19:23.410Z,98149.69
2018-09-18T01:21:55.703Z,98150.33
2018-09-18T01:24:27.989Z,98146.80
2018-09-18T01:27:00.216Z,98148.76
2018-09-18T01:29:32.536Z,98146.19
2018-09-18T01:32:05.148Z,98150.59
2018-09-18T01:34:37.444Z,98148.62
2018-09-18T01:37:09.695Z,98149.22
2018-09-18T01:39:41.968Z,98151.24
2018-09-18T01:42:14.249Z,98153.05
2018-09-18T01:44:46.509Z,98145.61
2018-09-18T01:47:18.828Z,98151.39
2018-09-18T01:49:51.150Z,98151.08
2018-09-18T01:52:23.408Z,98152.90
2018-09-18T01:54:55.694Z,98152.44
2018-09-18T01:57:27.978Z,98146.61
2018-09-18T02:00:00.289Z,98147.44
2018-09-18T02:02:32.549Z,98147.08
2018-09-18T02:05:04.876Z,98144.59
2018-09-18T02:07:37.144Z,98147.76
2018-09-18T02:10:09.365Z,98143.88
2018-09-18T02:12:41.641Z,98146.98
2018-09-18T02:15:13.853Z,98144.03
2018-09-18T02:17:47.188Z,98145.51
2018-09-18T02:20:19.462Z,98144.55
2018-09-18T02:22:51.716Z,98146.98
2018-09-18T02:25:24.012Z,98143.33
2018-09-18T02:27:58.504Z,98147.05
2018-09-18T02:30:31.296Z,98149.11
2018-09-18T02:33:03.572Z,98142.95
2018-09-18T02:35:35.797Z,98150.43
2018-09-18T02:38:08.092Z,98146.34
2018-09-18T02:40:40.364Z,98141.20
2018-09-18T02:43:12.650Z,98145.11
2018-09-18T02:45:44.893Z,98152.83
2018-09-18T02:48:17.177Z,98143.66
2018-09-18T02:50:49.439Z,98144.47
2018-09-18T02:53:21.707Z,98143.66
2018-09-18T02:55:53.984Z,98140.44
2018-09-18T02:58:26.257Z,98145.64
2018-09-18T03:00:58.849Z,98144.66
2018-09-18T03:03:31.141Z,98143.37
2018-09-18T03:06:03.493Z,98148.73
2018-09-18T03:08:35.789Z,98143.39
2018-09-18T03:11:08.338Z,98146.34
2018-09-18T03:13:40.607Z,98151.84
2018-09-18T03:16:12.863Z,98153.23
2018-09-18T03:18:45.133Z,98145.77
2018-09-18T03:21:17.428Z,98148.55
2018-09-18T03:23:56.401Z,98147.02
2018-09-18T03:26:28.654Z,98146.95
2018-09-18T03:29:00.931Z,98144.45
2018-09-18T03:31:33.247Z,98141.00
2018-09-18T03:34:05.537Z,98148.55
2018-09-18T03:36:37.800Z,98141.55
2018-09-18T03:39:10.071Z,98145.72
2018-09-18T03:41:42.388Z,98143.72
2018-09-18T03:44:14.663Z,98145.32
2018-09-18T03:46:46.929Z,98148.23
2018-09-18T03:49:19.203Z,98142.44
2018-09-18T03:51:51.576Z,98146.76
2018-09-18T03:54:23.938Z,98139.31
2018-09-18T03:56:56.193Z,98136.02
2018-09-18T03:59:28.592Z,98136.84
2018-09-18T04:02:00.876Z,98136.45
2018-09-18T04:04:33.212Z,98133.41
2018-09-18T04:07:05.525Z,98131.78
2018-09-18T04:09:37.838Z,98136.83
2018-09-18T04:12:10.107Z,98134.35
2018-09-18T04:14:42.387Z,98136.02
2018-09-18T04:17:14.823Z,98141.27
2018-09-18T04:19:47.101Z,98143.34
2018-09-18T04:22:19.441Z,98143.91
2018-09-18T04:24:51.689Z,98147.25
2018-09-18T04:27:23.989Z,98149.91
2018-09-18T04:29:56.241Z,98151.60
2018-09-18T04:32:28.536Z,98150.32
2018-09-18T04:35:00.763Z,98149.81
2018-09-18T04:37:33.020Z,98147.25
2018-09-18T04:40:05.954Z,98146.06
2018-09-18T04:42:38.235Z,98149.97
2018-09-18T04:45:10.500Z,98154.48
2018-09-18T04:47:42.772Z,98156.08
2018-09-18T04:50:15.021Z,98159.70
2018-09-18T04:52:47.275Z,98157.52
2018-09-18T04:55:19.532Z,98152.95
2018-09-18T04:57:51.823Z,98161.55
2018-09-18T05:00:24.066Z,98158.73
2018-09-18T05:02:56.325Z,98155.03
2018-09-18T05:05:28.596Z,98158.82
2018-09-18T05:08:00.843Z,98160.41
2018-09-18T05:10:33.093Z,98166.67
2018-09-18T05:13:05.397Z,98162.35
2018-09-18T05:15:37.654Z,98165.23
2018-09-18T05:18:09.934Z,98160.48
2018-09-18T05:20:42.164Z,98165.39
2018-09-18T05:23:14.465Z,98166.27
2018-09-18T05:25:46.736Z,98168.69
2018-09-18T05:28:19.013Z,98175.89
2018-09-18T05:30:51.290Z,98170.69
2018-09-18T05:33:23.531Z,98180.45
2018-09-18T05:35:55.809Z,98176.70
2018-09-18T05:38:28.025Z,98179.83
2018-09-18T05:41:00.300Z,98181.92
2018-09-18T05:43:32.584Z,98180.40
2018-09-18T05:46:04.860Z,98182.81
2018-09-18T05:48:37.104Z,98175.00
2018-09-18T05:51:09.434Z,98177.06
2018-09-18T05:53:41.690Z,98172.21
2018-09-18T05:56:13.957Z,98173.77
2018-09-18T05:58:46.220Z,98176.21
2018-09-18T06:01:18.500Z,98175.25
2018-09-18T06:03:50.762Z,98182.84
2018-09-18T06:06:23.081Z,98187.09
2018-09-18T06:08:55.313Z,98186.21
2018-09-18T06:11:27.601Z,98179.73
2018-09-18T06:13:59.873Z,98191.03
2018-09-18T06:16:32.249Z,98186.45
2018-09-18T06:19:04.553Z,98185.50
2018-09-18T06:21:36.827Z,98189.48
2018-09-18T06:24:09.115Z,98184.72
2018-09-18T06:26:41.365Z,98191.41
2018-09-18T06:29:13.604Z,98188.52
2018-09-18T06:31:45.885Z,98185.03
2018-09-18T06:34:18.109Z,98183.16
2018-09-18T06:36:50.386Z,98187.16
2018-09-18T06:39:22.654Z,98182.84
2018-09-18T06:41:54.928Z,98176.97
2018-09-18T06:44:27.243Z,98176.77
2018-09-18T06:46:59.495Z,98173.31
2018-09-18T06:49:31.809Z,98172.81
2018-09-18T06:52:04.079Z,98176.88
2018-09-18T06:54:36.524Z,98171.50
2018-09-18T06:57:08.664Z,98176.87
2018-09-18T06:59:40.986Z,98179.68
2018-09-18T07:02:14.129Z,98175.72
2018-09-18T07:04:46.467Z,98173.89
2018-09-18T07:07:18.768Z,98176.16
2018-09-18T07:09:51.074Z,98168.52
2018-09-18T07:12:23.390Z,98172.77
2018-09-18T07:14:55.645Z,98176.17
2018-09-18T07:17:27.919Z,98172.92
2018-09-18T07:20:00.290Z,98171.87
2018-09-18T07:22:42.139Z,98167.42
2018-09-18T07:25:14.428Z,98162.99
2018-09-18T07:27:46.715Z,98166.77
2018-09-18T07:30:19.054Z,98169.19
2018-09-18T07:32:51.337Z,98160.75
2018-09-18T07:35:23.664Z,98162.05
2018-09-18T07:37:55.928Z,98164.48
2018-09-18T07:40:28.204Z,98163.97
2018-09-18T07:43:00.446Z,98168.68
2018-09-18T07:45:32.821Z,98169.28
2018-09-18T07:48:05.120Z,98173.99
2018-09-18T07:50:37.434Z,98174.23
2018-09-18T07:53:09.690Z,98169.22
2018-09-18T07:55:41.989Z,98161.59
2018-09-18T07:58:14.293Z,98162.66
2018-09-18T08:00:46.619Z,98160.62
2018-09-18T08:03:25.788Z,98160.30
2018-09-18T08:05:58.092Z,98150.95
2018-09-18T08:08:30.336Z,98152.83
2018-09-18T08:11:02.629Z,98155.48
2018-09-18T08:13:34.895Z,98150.32
2018-09-18T08:16:07.129Z,98153.00
2018-09-18T08:18:39.445Z,98155.71
2018-09-18T08:21:11.762Z,98149.30
2018-09-18T08:23:44.113Z,98151.48
2018-09-18T08:26:16.403Z,98154.14
2018-09-18T08:28:48.705Z,98159.84
2018-09-18T08:31:20.961Z,98159.85
2018-09-18T08:33:53.234Z,98156.37
2018-09-18T08:36:25.548Z,98161.23
2018-09-18T08:39:00.457Z,98158.63
2018-09-18T08:41:32.677Z,98160.36
2018-09-18T08:44:06.539Z,98162.13
2018-09-18T08:46:38.898Z,98156.39
2018-09-18T08:49:11.201Z,98149.82
2018-09-18T08:51:43.596Z,98155.87
2018-09-18T08:54:15.790Z,98158.42
2018-09-18T08:56:48.032Z,98155.77
2018-09-18T08:59:20.337Z,98153.97
2018-09-18T09:01:52.682Z,98152.61
2018-09-18T09:04:24.964Z,98153.88
2018-09-18T09:06:57.237Z,98149.42
2018-09-18T09:09:29.607Z,98146.73
2018-09-18T09:12:01.827Z,98148.05
2018-09-18T09:14:34.269Z,98150.66
2018-09-18T09:17:06.549Z,98152.30
2018-09-18T09:19:38.866Z,98148.69
2018-09-18T09:22:11.260Z,98149.02
2018-09-18T09:24:43.577Z,98149.41
2018-09-18T09:27:15.833Z,98143.64
2018-09-18T09:29:48.176Z,98138.32
2018-09-18T09:32:20.485Z,98143.86
2018-09-18T09:34:52.959Z,98145.03
2018-09-18T09:37:25.186Z,98144.95
2018-09-18T09:39:57.450Z,98143.12
2018-09-18T09:42:29.760Z,98139.95
2018-09-18T09:45:02.098Z,98141.77
2018-09-18T09:47:34.353Z,98141.42
2018-09-18T09:50:07.046Z,98140.44
2018-09-18T09:52:39.351Z,98137.28
2018-09-18T09:55:11.877Z,98136.86
2018-09-18T09:57:44.173Z,98135.00
2018-09-18T10:00:22.006Z,98140.52
2018-09-18T10:02:54.363Z,98139.61
2018-09-18T10:05:26.608Z,98136.75
2018-09-18T10:07:58.877Z,98130.30
2018-09-18T10:10:31.152Z,98128.62
2018-09-18T10:13:03.423Z,98127.72
2018-09-18T10:15:35.706Z,98120.09
2018-09-18T10:18:08.086Z,98123.90
2018-09-18T10:20:40.321Z,98118.13
2018-09-18T10:23:12.624Z,98120.34
2018-09-18T10:25:44.875Z,98120.08
2018-09-18T10:28:17.200Z,98122.27
2018-09-18T10:30:49.545Z,98118.13
2018-09-18T10:33:21.829Z,98115.99
2018-09-18T10:35:54.130Z,98107.62
2018-09-18T10:38:26.484Z,98104.94
2018-09-18T10:40:58.914Z,98102.66
2018-09-18T10:43:31.328Z,98107.00
2018-09-18T10:46:03.597Z,98101.39
2018-09-18T10:48:41.562Z,98107.62
2018-09-18T10:51:13.796Z,98090.45
2018-09-18T10:53:46.140Z,98096.63
2018-09-18T10:56:18.453Z,98090.50
2018-09-18T10:58:50.740Z,98099.91
2018-09-18T11:01:23.150Z,98094.13
2018-09-18T11:03:55.502Z,98093.38
2018-09-18T11:06:27.799Z,98092.31
2018-09-18T11:09:00.105Z,98094.52
2018-09-18T11:11:32.487Z,98088.95
2018-09-18T11:14:04.830Z,98090.23
2018-09-18T11:16:37.137Z,98090.67
2018-09-18T11:19:09.905Z,98087.44
2018-09-18T11:21:42.296Z,98082.42
2018-09-18T11:24:14.543Z,98086.43
2018-09-18T11:26:46.814Z,98084.14
2018-09-18T11:29:19.125Z,98079.73
2018-09-18T11:31:51.502Z,98076.14
2018-09-18T11:34:23.831Z,98083.47
2018-09-18T11:36:56.124Z,98087.68
2018-09-18T11:39:28.441Z,98083.19
2018-09-18T11:42:00.821Z,98085.52
2018-09-18T11:44:33.168Z,98074.42
2018-09-18T11:47:05.486Z,98077.10
2018-09-18T11:49:37.787Z,98071.07
2018-09-18T11:52:10.268Z,98069.73
2018-09-18T11:54:42.562Z,98068.57
2018-09-18T11:57:14.897Z,98060.67
2018-09-18T11:59:47.177Z,98068.36
2018-09-18T12:02:19.531Z,98065.58
2018-09-18T12:04:51.997Z,98056.05
2018-09-18T12:07:24.322Z,98051.23
2018-09-18T12:09:56.606Z,98053.42
2018-09-18T12:12:28.957Z,98051.59
2018-09-18T12:15:01.238Z,98044.19
2018-09-18T12:17:33.639Z,98047.64
2018-09-18T12:20:05.933Z,98041.98
2018-09-18T12:22:38.245Z,98042.89
2018-09-18T12:25:10.596Z,98041.21
2018-09-18T12:27:43.122Z,98039.58
2018-09-18T12:30:15.456Z,98041.21
2018-09-18T12:32:47.777Z,98045.16
2018-09-18T12:35:20.122Z,98042.22
2018-09-18T12:37:52.430Z,98040.95
2018-09-18T12:40:24.697Z,98039.93
2018-09-18T12:42:57.036Z,98041.61
2018-09-18T12:45:29.340Z,98038.47
2018-09-18T12:48:02.091Z,98038.02
2018-09-18T12:50:34.466Z,98037.10
2018-09-18T12:53:06.784Z,98037.05
2018-09-18T12:55:39.090Z,98029.81
2018-09-18T12:58:11.467Z,98028.74
2018-09-18T13:00:43.698Z,98018.97
2018-09-18T13:03:16.021Z,98019.84
2018-09-18T13:05:48.424Z,98019.53
2018-09-18T13:08:20.779Z,98015.98
2018-09-18T13:10:53.058Z,98011.63
2018-09-18T13:13:26.197Z,98008.34
2018-09-18T13:15:58.510Z,98005.71
2018-09-18T13:18:30.898Z,98002.11
2018-09-18T13:21:03.237Z,97997.95
2018-09-18T13:23:35.543Z,97994.39
2018-09-18T13:26:08.084Z,97990.45
2018-09-18T13:28:40.385Z,97994.55
2018-09-18T13:31:12.701Z,97989.90
2018-09-18T13:33:45.015Z,97984.39
2018-09-18T13:36:17.389Z,97985.30
2018-09-18T13:38:49.658Z,97979.45
2018-09-18T13:41:22.120Z,97975.70
2018-09-18T13:43:54.328Z,97974.33
2018-09-18T13:46:26.739Z,97971.39
2018-09-18T13:48:59.039Z,97963.61
2018-09-18T13:51:31.392Z,97969.00
2018-09-18T13:54:03.667Z,97970.62
2018-09-18T13:56:36.031Z,97965.92
2018-09-18T13:59:08.352Z,97959.11
2018-09-18T14:01:41.043Z,97958.35
2018-09-18T14:04:13.219Z,97956.78
2018-09-18T14:06:45.588Z,97957.63
2018-09-18T14:09:17.998Z,97957.95
2018-09-18T14:11:50.286Z,97952.47
2018-09-18T14:14:22.744Z,97944.45
2018-09-18T14:16:55.000Z,97942.31
2018-09-18T14:19:27.276Z,97945.09
2018-09-18T14:21:59.617Z,97944.38
2018-09-18T14:24:31.984Z,97941.20
2018-09-18T14:27:04.391Z,97937.45
2018-09-18T14:29:36.673Z,97936.80
2018-09-18T14:32:09.115Z,97934.11
2018-09-18T14:34:41.434Z,97930.54
2018-09-18T14:37:13.787Z,97940.60
2018-09-18T14:39:46.122Z,97940.05
2018-09-18T14:42:18.517Z,97936.33
2018-09-18T14:44:50.922Z,97940.55
2018-09-18T14:47:23.250Z,97945.03
2018-09-18T14:49:55.636Z,97947.32
2018-09-18T14:52:27.952Z,97948.02
2018-09-18T14:55:00.369Z,97933.94
2018-09-18T14:57:32.661Z,97937.09
2018-09-18T15:00:05.160Z,97933.28
2018-09-18T15:02:37.465Z,97940.86
2018-09-18T15:05:09.818Z,97934.87
2018-09-18T15:07:42.105Z,97932.77
2018-09-18T15:10:14.446Z,97930.03
2018-09-18T15:12:46.830Z,97934.02
2018-09-18T15:15:19.136Z,97932.27
2018-09-18T15:17:51.462Z,97937.92
2018-09-18T15:20:23.885Z,97932.19
2018-09-18T15:22:56.149Z,97932.13
2018-09-18T15:25:28.485Z,97929.05
2018-09-18T15:28:00.969Z,97927.28
2018-09-18T15:30:33.252Z,97934.44
2018-09-18T15:33:05.641Z,97934.83
2018-09-18T15:35:38.583Z,97934.95
2018-09-18T15:38:10.910Z,97936.37
2018-09-18T15:40:43.290Z,97936.02
2018-09-18T15:43:15.617Z,97935.26
2018-09-18T15:45:48.072Z,97938.41
2018-09-18T15:48:20.453Z,97935.44
2018-09-18T15:50:52.819Z,97935.91
2018-09-18T15:53:25.176Z,97937.31
2018-09-18T15:55:57.524Z,97942.17
2018-09-18T15:58:29.888Z,97934.23
2018-09-18T16:01:02.232Z,97934.23
2018-09-18T16:03:34.643Z,97932.52
2018-09-18T16:06:07.044Z,97936.05
2018-09-18T16:08:39.427Z,97930.07
2018-09-18T16:11:11.770Z,97942.47
2018-09-18T16:13:44.115Z,97933.04
2018-09-18T16:16:16.565Z,97933.58
2018-09-18T16:18:48.966Z,97941.60
2018-09-18T16:21:21.289Z,97934.75
2018-09-18T16:23:53.631Z,97936.63
2018-09-18T16:26:26.008Z,97936.33
2018-09-18T16:28:58.361Z,97933.81
2018-09-18T16:31:30.755Z,97940.91
2018-09-18T16:34:03.067Z,97942.35
2018-09-18T16:36:35.550Z,97942.92
2018-09-18T16:39:07.862Z,97948.30
2018-09-18T16:41:40.165Z,97951.00
2018-09-18T16:44:12.474Z,97957.64
2018-09-18T16:46:44.827Z,97958.13
2018-09-18T16:49:17.234Z,97968.69
2018-09-18T16:51:49.773Z,97978.83
2018-09-18T16:54:22.121Z,97988.89
2018-09-18T16:56:54.558Z,97983.65
2018-09-18T16:59:26.880Z,97984.53
2018-09-18T17:01:59.290Z,97987.59
2018-09-18T17:04:31.704Z,97998.58
2018-09-18T17:07:04.251Z,98013.07
2018-09-18T17:09:36.592Z,98026.73
2018-09-18T17:12:08.966Z,98034.61
2018-09-18T17:14:41.350Z,98045.84
2018-09-18T17:17:13.703Z,98064.98
2018-09-18T17:19:46.108Z,98062.11
2018-09-18T17:22:18.447Z,98074.00
2018-09-18T17:24:50.786Z,98068.66
2018-09-18T17:27:23.172Z,98066.95
2018-09-18T17:29:55.514Z,98064.91
2018-09-18T17:32:27.841Z,98057.19
2018-09-18T17:35:00.228Z,98055.42
2018-09-18T17:37:32.522Z,98043.33
2018-09-18T17:40:05.163Z,98059.91
2018-09-18T17:42:37.533Z,98067.75
2018-09-18T17:45:09.916Z,98064.49
2018-09-18T17:47:42.227Z,98058.53
2018-09-18T17:50:14.621Z,98059.19
2018-09-18T17:52:46.947Z,98067.39
2018-09-18T17:55:19.357Z,98069.23
2018-09-18T17:57:51.669Z,98076.17
2018-09-18T18:00:24.062Z,98083.11
2018-09-18T18:02:56.455Z,98075.57
2018-09-18T18:05:29.020Z,98079.04
2018-09-18T18:08:08.136Z,98082.92
2018-09-18T18:10:40.599Z,98094.05
2018-09-18T18:13:13.017Z,98125.53
2018-09-18T18:15:45.370Z,98121.08
2018-09-18T18:18:17.718Z,98122.62
2018-09-18T18:20:50.118Z,98134.09
2018-09-18T18:23:22.457Z,98144.30
2018-09-18T18:25:54.796Z,98137.69
2018-09-18T18:28:27.197Z,98130.09
2018-09-18T18:30:59.532Z,98133.30
2018-09-18T18:33:31.978Z,98136.58
2018-09-18T18:36:04.331Z,98149.34
2018-09-18T18:38:36.656Z,98146.95
2018-09-18T18:41:09.032Z,98142.50
2018-09-18T18:43:41.406Z,98145.17
2018-09-18T18:46:13.850Z,98142.88
2018-09-18T18:48:46.271Z,98144.16
2018-09-18T18:51:18.613Z,98150.06
2018-09-18T18:53:51.043Z,98165.09
2018-09-18T18:56:23.534Z,98174.20
2018-09-18T18:58:55.930Z,98201.17
2018-09-18T19:01:28.392Z,98206.45
2018-09-18T19:04:00.838Z,98200.90
2018-09-18T19:06:33.387Z,98201.55
2018-09-18T19:09:06.814Z,98198.34
2018-09-18T19:11:39.194Z,98197.75
2018-09-18T19:14:11.540Z,98205.69
2018-09-18T19:16:43.972Z,98207.41
2018-09-18T19:19:16.408Z,98211.41
2018-09-18T19:21:48.773Z,98209.26
2018-09-18T19:24:21.153Z,98215.86
2018-09-18T19:26:53.551Z,98219.98
2018-09-18T19:29:25.846Z,98224.03
2018-09-18T19:31:58.206Z,98217.02
2018-09-18T19:34:30.613Z,98204.93
2018-09-18T19:37:03.014Z,98206.53
2018-09-18T19:39:35.374Z,98210.48
2018-09-18T19:42:07.940Z,98202.08
2018-09-18T19:44:40.408Z,98201.83
2018-09-18T19:47:12.849Z,98197.44
2018-09-18T19:49:45.305Z,98206.67
2018-09-18T19:52:17.694Z,98199.53
2018-09-18T19:54:50.037Z,98199.51
2018-09-18T19:57:22.410Z,98198.39
2018-09-18T19:59:54.718Z,98205.91
2018-09-18T20:02:27.007Z,98207.66
2018-09-18T20:04:59.384Z,98210.33
2018-09-18T20:07:31.690Z,98205.08
2018-09-18T20:10:04.334Z,98205.67
2018-09-18T20:12:36.736Z,98206.86
2018-09-18T20:15:09.116Z,98203.95
2018-09-18T20:17:41.405Z,98207.84
2018-09-18T20:20:13.744Z,98212.16
2018-09-18T20:22:46.210Z,98218.88
2018-09-18T20:25:18.546Z,98222.77
2018-09-18T20:27:50.861Z,98230.27
2018-09-18T20:30:23.216Z,98230.63
2018-09-18T20:32:55.606Z,98235.27
2018-09-18T20:35:27.927Z,98242.55
2018-09-18T20:38:00.245Z,98240.98
2018-09-18T20:40:32.598Z,98247.53
2018-09-18T20:43:04.908Z,98248.00
2018-09-18T20:45:37.278Z,98252.91
2018-09-18T20:48:09.656Z,98253.84
2018-09-18T20:50:42.021Z,98250.41
2018-09-18T20:53:14.277Z,98256.17
2018-09-18T20:55:46.632Z,98262.73
2018-09-18T20:58:18.877Z,98265.23
2018-09-18T21:00:51.283Z,98261.63
2018-09-18T21:03:23.637Z,98260.33
2018-09-18T21:05:55.985Z,98263.10
2018-09-18T21:08:28.350Z,98270.45
2018-09-18T21:11:00.596Z,98265.69
2018-09-18T21:13:33.001Z,98260.88
2018-09-18T21:16:05.514Z,98258.94
2018-09-18T21:18:37.806Z,98257.59
2018-09-18T21:21:10.142Z,98259.30
2018-09-18T21:23:42.476Z,98257.38
2018-09-18T21:26:17.010Z,98259.96
2018-09-18T21:28:49.595Z,98256.20
2018-09-18T21:31:21.862Z,98253.48
2018-09-18T21:33:54.168Z,98245.63
2018-09-18T21:36:26.461Z,98246.92
2018-09-18T21:38:58.807Z,98245.89
2018-09-18T21:41:31.080Z,98242.01
2018-09-18T21:44:03.454Z,98252.41
2018-09-18T21:46:35.789Z,98274.52
2018-09-18T21:49:08.149Z,98276.31
2018-09-18T21:51:40.480Z,98255.78
2018-09-18T21:54:12.769Z,98283.73
2018-09-18T21:56:45.063Z,98287.84
2018-09-18T21:59:17.428Z,98272.70
2018-09-18T22:01:49.755Z,98283.06
2018-09-18T22:04:22.116Z,98282.55
2018-09-18T22:06:54.438Z,98280.64
2018-09-18T22:09:26.666Z,98277.02
2018-09-18T22:11:58.952Z,98269.12
2018-09-18T22:14:31.231Z,98271.09
2018-09-18T22:17:03.763Z,98274.88
2018-09-18T22:19:36.034Z,98289.21
2018-09-18T22:22:08.348Z,98283.61
2018-09-18T22:24:40.640Z,98282.28
2018-09-18T22:27:12.878Z,98277.11
2018-09-18T22:29:45.206Z,98277.72
2018-09-18T22:32:17.488Z,98269.89
2018-09-18T22:34:49.822Z,98271.98
2018-09-18T22:37:22.980Z,98275.25
2018-09-18T22:39:55.513Z,98279.84
2018-09-18T22:42:27.803Z,98286.83
2018-09-18T22:45:00.060Z,98291.97
2018-09-18T22:47:32.404Z,98292.77
2018-09-18T22:50:04.769Z,98297.53
2018-09-18T22:52:37.077Z,98297.63
2018-09-18T22:55:09.405Z,98302.57
2018-09-18T22:57:41.715Z,98310.64
2018-09-18T23:00:13.969Z,98311.98
2018-09-18T23:02:46.212Z,98314.36
2018-09-18T23:05:18.547Z,98314.25
2018-09-18T23:07:50.828Z,98307.47
2018-09-18T23:10:23.152Z,98308.28
2018-09-18T23:12:55.431Z,98309.56
2018-09-18T23:15:27.745Z,98314.84
2018-09-18T23:18:00.005Z,98318.52
2018-09-18T23:20:32.257Z,98317.95
2018-09-18T23:23:04.609Z,98315.72
2018-09-18T23:25:36.868Z,98323.42
2018-09-18T23:28:09.366Z,98319.95
2018-09-18T23:30:41.607Z,98323.59
2018-09-18T23:33:13.894Z,98321.84
2018-09-18T23:35:46.165Z,98321.73
2018-09-18T23:38:18.460Z,98323.61
2018-09-18T23:40:50.750Z,98326.56
2018-09-18T23:43:23.025Z,98324.48
2018-09-18T23:45:55.287Z,98327.86
2018-09-18T23:48:27.552Z,98330.68
2018-09-18T23:50:59.804Z,98327.22
2018-09-18T23:53:32.165Z,98329.27
2018-09-18T23:56:11.108Z,98328.09
2018-09-18T23:58:43.424Z,98327.15
